TimeEDT,TemperatureF,Dew PointF,Humidity,Sea Level PressureIn,VisibilityMPH,Wind Direction,Wind SpeedMPH,Gust SpeedMPH,PrecipitationIn,Events,Conditions,WindDirDegrees,DateUTC
12:15 AM,62.6,60.8,94,29.87,10.0,Calm,Calm,-,N/A,,Clear,0,2012-04-01 04:15:00
12:35 AM,62.6,60.8,94,29.87,7.0,WSW,3.5,-,N/A,,Clear,250,2012-04-01 04:35:00
12:55 AM,62.6,60.8,94,29.86,0.2,WSW,3.5,-,N/A,,Unknown,250,2012-04-01 04:55:00
1:15 AM,62.6,60.8,94,29.86,1.8,WSW,4.6,-,N/A,,Unknown,250,2012-04-01 05:15:00
1:35 AM,60.8,60.8,100,29.87,3.0,West,3.5,-,N/A,,Clear,280,2012-04-01 05:35:00
1:55 AM,62.6,60.8,94,29.86,10.0,West,3.5,-,N/A,,Clear,270,2012-04-01 05:55:00
2:15 AM,62.6,60.8,94,29.87,10.0,Calm,Calm,-,N/A,,Clear,0,2012-04-01 06:15:00
2:35 AM,60.8,60.8,100,29.86,10.0,West,3.5,-,N/A,,Clear,270,2012-04-01 06:35:00
2:55 AM,62.6,60.8,94,29.86,10.0,West,4.6,-,N/A,,Clear,260,2012-04-01 06:55:00
3:15 AM,60.8,60.8,100,29.85,10.0,West,3.5,-,N/A,,Clear,260,2012-04-01 07:15:00
3:35 AM,60.8,60.8,100,29.85,10.0,WSW,6.9,-,N/A,,Clear,250,2012-04-01 07:35:00
3:55 AM,62.6,60.8,94,29.83,10.0,West,5.8,-,N/A,,Clear,270,2012-04-01 07:55:00
4:15 AM,62.6,60.8,94,29.82,10.0,West,4.6,-,N/A,,Clear,280,2012-04-01 08:15:00
4:35 AM,62.6,60.8,94,29.82,10.0,West,8.1,-,N/A,,Clear,260,2012-04-01 08:35:00
4:55 AM,62.6,60.8,94,29.82,10.0,West,9.2,-,N/A,,Clear,260,2012-04-01 08:55:00
5:15 AM,62.6,60.8,94,29.82,10.0,West,8.1,-,N/A,,Clear,270,2012-04-01 09:15:00
5:35 AM,62.6,60.8,94,29.83,10.0,West,9.2,-,N/A,,Clear,280,2012-04-01 09:35:00
5:55 AM,62.6,60.8,94,29.84,10.0,West,6.9,-,N/A,,Clear,280,2012-04-01 09:55:00
6:15 AM,62.6,60.8,94,29.85,10.0,West,4.6,-,N/A,,Clear,270,2012-04-01 10:15:00
6:35 AM,62.6,60.8,94,29.85,10.0,West,5.8,-,N/A,,Clear,270,2012-04-01 10:35:00
6:55 AM,62.6,60.8,94,29.86,10.0,West,4.6,-,N/A,,Clear,260,2012-04-01 10:55:00
7:15 AM,60.8,60.8,100,29.87,10.0,West,4.6,-,N/A,,Clear,280,2012-04-01 11:15:00
7:35 AM,62.6,60.8,94,29.87,10.0,West,5.8,-,N/A,,Clear,270,2012-04-01 11:35:00
7:55 AM,62.6,60.8,94,29.87,10.0,West,8.1,-,N/A,,Clear,280,2012-04-01 11:55:00
8:15 AM,64.4,62.6,94,29.88,10.0,West,6.9,-,N/A,,Clear,280,2012-04-01 12:15:00
8:35 AM,64.4,62.6,94,29.88,10.0,West,6.9,-,N/A,,Clear,280,2012-04-01 12:35:00
8:55 AM,66.2,62.6,88,29.88,10.0,West,8.1,-,N/A,,Clear,280,2012-04-01 12:55:00
9:15 AM,68.0,62.6,83,29.89,10.0,WNW,4.6,-,N/A,,Clear,290,2012-04-01 13:15:00
9:35 AM,69.8,62.6,78,29.89,10.0,West,8.1,-,N/A,,Clear,270,2012-04-01 13:35:00
9:55 AM,69.8,64.4,83,29.90,10.0,West,6.9,-,N/A,,Clear,280,2012-04-01 13:55:00
10:15 AM,71.6,64.4,78,29.90,10.0,NW,4.6,-,N/A,,Clear,320,2012-04-01 14:15:00
10:35 AM,73.4,62.6,69,29.91,10.0,WNW,6.9,-,N/A,,Clear,290,2012-04-01 14:35:00
10:55 AM,75.2,62.6,65,29.91,10.0,NNW,5.8,-,N/A,,Clear,330,2012-04-01 14:55:00
11:15 AM,77.0,62.6,61,29.92,10.0,NW,6.9,-,N/A,,Clear,310,2012-04-01 15:15:00
11:35 AM,77.0,62.6,61,29.92,10.0,NW,3.5,-,N/A,,Clear,320,2012-04-01 15:35:00
11:55 AM,78.8,62.6,57,29.91,10.0,North,4.6,-,N/A,,Clear,350,2012-04-01 15:55:00
12:15 PM,80.6,62.6,54,29.91,10.0,NW,4.6,-,N/A,,Clear,320,2012-04-01 16:15:00
12:35 PM,80.6,60.8,51,29.90,10.0,NW,6.9,-,N/A,,Clear,310,2012-04-01 16:35:00
12:55 PM,80.6,60.8,51,29.90,10.0,WNW,3.5,-,N/A,,Clear,300,2012-04-01 16:55:00
1:15 PM,82.4,59.0,45,29.90,10.0,WNW,3.5,-,N/A,,Clear,300,2012-04-01 17:15:00
1:35 PM,82.4,60.8,48,29.89,10.0,SW,3.5,-,N/A,,Scattered Clouds,220,2012-04-01 17:35:00
1:55 PM,82.4,59.0,45,29.88,10.0,Calm,Calm,-,N/A,,Scattered Clouds,0,2012-04-01 17:55:00
2:15 PM,82.4,59.0,45,29.88,10.0,WSW,4.6,-,N/A,,Scattered Clouds,240,2012-04-01 18:15:00
2:35 PM,82.4,59.0,45,29.87,10.0,NNE,3.5,-,N/A,,Scattered Clouds,30,2012-04-01 18:35:00
2:55 PM,80.6,62.6,54,29.87,10.0,East,3.5,-,N/A,,Scattered Clouds,80,2012-04-01 18:55:00
3:15 PM,80.6,62.6,54,29.86,10.0,SE,6.9,-,N/A,,Scattered Clouds,140,2012-04-01 19:15:00
3:35 PM,80.6,60.8,51,29.86,10.0,East,4.6,-,N/A,,Scattered Clouds,100,2012-04-01 19:35:00
3:55 PM,80.6,62.6,54,29.85,10.0,ESE,9.2,-,N/A,,Clear,110,2012-04-01 19:55:00
4:15 PM,80.6,62.6,54,29.84,10.0,SE,10.4,-,N/A,,Clear,130,2012-04-01 20:15:00
4:35 PM,80.6,62.6,54,29.83,10.0,SE,8.1,-,N/A,,Clear,130,2012-04-01 20:35:00
4:55 PM,80.6,62.6,54,29.83,10.0,ESE,9.2,-,N/A,,Clear,120,2012-04-01 20:55:00
5:15 PM,80.6,62.6,54,29.83,10.0,ESE,8.1,-,N/A,,Clear,120,2012-04-01 21:15:00
5:35 PM,80.6,62.6,54,29.83,10.0,SE,8.1,-,N/A,,Clear,130,2012-04-01 21:35:00
5:55 PM,78.8,62.6,57,29.83,10.0,SE,8.1,-,N/A,,Clear,140,2012-04-01 21:55:00
6:15 PM,78.8,62.6,57,29.84,10.0,SE,6.9,-,N/A,,Clear,140,2012-04-01 22:15:00
6:35 PM,78.8,62.6,57,29.84,10.0,SE,6.9,-,N/A,,Clear,140,2012-04-01 22:35:00
6:55 PM,77.0,62.6,61,29.84,10.0,SE,4.6,-,N/A,,Clear,140,2012-04-01 22:55:00
7:15 PM,77.0,62.6,61,29.84,10.0,South,8.1,-,N/A,,Clear,180,2012-04-01 23:15:00
7:35 PM,73.4,62.6,69,29.85,10.0,SSE,4.6,-,N/A,,Clear,150,2012-04-01 23:35:00
7:55 PM,71.6,62.6,73,29.85,10.0,SSE,4.6,-,N/A,,Clear,150,2012-04-01 23:55:00
8:15 PM,71.6,64.4,78,29.85,10.0,SSE,4.6,-,N/A,,Clear,150,2012-04-02 00:15:00
8:35 PM,71.6,64.4,78,29.85,10.0,SSE,4.6,-,N/A,,Clear,150,2012-04-02 00:35:00
8:55 PM,71.6,64.4,78,29.85,10.0,SSE,4.6,-,N/A,,Clear,160,2012-04-02 00:55:00
9:15 PM,69.8,64.4,83,29.86,10.0,Calm,Calm,-,N/A,,Clear,0,2012-04-02 01:15:00
9:35 PM,69.8,64.4,83,29.87,10.0,South,3.5,-,N/A,,Clear,170,2012-04-02 01:35:00
9:55 PM,69.8,64.4,83,29.87,10.0,South,4.6,-,N/A,,Clear,170,2012-04-02 01:55:00
10:15 PM,69.8,64.4,83,29.87,10.0,South,3.5,-,N/A,,Clear,180,2012-04-02 02:15:00
10:35 PM,69.8,64.4,83,29.87,10.0,South,4.6,-,N/A,,Clear,190,2012-04-02 02:35:00
10:55 PM,69.8,64.4,83,29.87,10.0,Calm,Calm,-,N/A,,Clear,0,2012-04-02 02:55:00
11:15 PM,66.2,64.4,94,29.87,10.0,Calm,Calm,-,N/A,,Clear,0,2012-04-02 03:15:00
11:35 PM,66.2,64.4,94,29.87,10.0,Calm,Calm,-,N/A,,Clear,0,2012-04-02 03:35:00
11:55 PM,64.4,62.6,94,29.86,10.0,Calm,Calm,-,N/A,,Clear,0,2012-04-02 03:55:00